sensor_id;sensor_type;location;lat;lon;timestamp;temperature;humidity
19610;DHT22;9952;47.122;-1.638;2023-03-29T00:04:36;11.70;99.90
19610;DHT22;9952;47.122;-1.638;2023-03-29T00:09:18;11.70;99.90
19610;DHT22;9952;47.122;-1.638;2023-03-29T00:13:59;11.60;99.90
19610;DHT22;9952;47.122;-1.638;2023-03-29T00:18:40;11.60;99.90
19610;DHT22;9952;47.122;-1.638;2023-03-29T00:23:21;11.50;99.90
19610;DHT22;9952;47.122;-1.638;2023-03-29T00:28:02;11.50;99.90
19610;DHT22;9952;47.122;-1.638;2023-03-29T00:32:44;11.50;99.90
19610;DHT22;9952;47.122;-1.638;2023-03-29T00:37:26;11.40;99.90
19610;DHT22;9952;47.122;-1.638;2023-03-29T00:42:12;11.40;99.90
19610;DHT22;9952;47.122;-1.638;2023-03-29T00:46:53;11.40;99.90
19610;DHT22;9952;47.122;-1.638;2023-03-29T00:51:35;11.30;99.90
19610;DHT22;9952;47.122;-1.638;2023-03-29T01:01:06;11.30;99.90
19610;DHT22;9952;47.122;-1.638;2023-03-29T01:06:04;11.30;99.90
19610;DHT22;9952;47.122;-1.638;2023-03-29T01:15:32;11.20;99.90
19610;DHT22;9952;47.122;-1.638;2023-03-29T01:20:23;11.20;99.90
19610;DHT22;9952;47.122;-1.638;2023-03-29T01:30:27;11.10;99.90
19610;DHT22;9952;47.122;-1.638;2023-03-29T01:35:22;11.00;99.90
19610;DHT22;9952;47.122;-1.638;2023-03-29T01:40:05;11.00;99.90
19610;DHT22;9952;47.122;-1.638;2023-03-29T01:44:54;10.90;99.90
19610;DHT22;9952;47.122;-1.638;2023-03-29T01:55:12;10.70;99.90
19610;DHT22;9952;47.122;-1.638;2023-03-29T01:59:55;10.60;99.90
19610;DHT22;9952;47.122;-1.638;2023-03-29T02:04:42;10.50;99.90
19610;DHT22;9952;47.122;-1.638;2023-03-29T02:09:28;10.40;99.90
19610;DHT22;9952;47.122;-1.638;2023-03-29T02:14:10;10.40;99.90
19610;DHT22;9952;47.122;-1.638;2023-03-29T02:18:53;10.40;99.90
19610;DHT22;9952;47.122;-1.638;2023-03-29T02:23:45;10.30;99.90
19610;DHT22;9952;47.122;-1.638;2023-03-29T02:28:29;10.30;99.90
19610;DHT22;9952;47.122;-1.638;2023-03-29T02:33:17;10.30;99.90
19610;DHT22;9952;47.122;-1.638;2023-03-29T02:38:06;10.20;99.90
19610;DHT22;9952;47.122;-1.638;2023-03-29T02:42:48;10.20;99.90
19610;DHT22;9952;47.122;-1.638;2023-03-29T02:47:37;10.10;99.90
19610;DHT22;9952;47.122;-1.638;2023-03-29T02:52:30;10.00;99.90
19610;DHT22;9952;47.122;-1.638;2023-03-29T02:57:13;9.80;99.90
19610;DHT22;9952;47.122;-1.638;2023-03-29T03:01:54;9.80;99.90
19610;DHT22;9952;47.122;-1.638;2023-03-29T03:06:36;9.70;99.90
19610;DHT22;9952;47.122;-1.638;2023-03-29T03:11:17;9.60;99.90
19610;DHT22;9952;47.122;-1.638;2023-03-29T03:15:58;9.60;99.90
19610;DHT22;9952;47.122;-1.638;2023-03-29T03:20:40;9.60;99.90
19610;DHT22;9952;47.122;-1.638;2023-03-29T03:25:21;9.50;99.90
19610;DHT22;9952;47.122;-1.638;2023-03-29T03:30:04;9.50;99.90
19610;DHT22;9952;47.122;-1.638;2023-03-29T03:34:45;9.50;99.90
19610;DHT22;9952;47.122;-1.638;2023-03-29T03:39:26;9.50;99.90
19610;DHT22;9952;47.122;-1.638;2023-03-29T03:44:07;9.50;99.90
19610;DHT22;9952;47.122;-1.638;2023-03-29T03:48:48;9.40;99.90
19610;DHT22;9952;47.122;-1.638;2023-03-29T04:05:43;9.10;99.90
19610;DHT22;9952;47.122;-1.638;2023-03-29T04:10:24;9.00;99.90
19610;DHT22;9952;47.122;-1.638;2023-03-29T04:20:57;8.90;99.90
19610;DHT22;9952;47.122;-1.638;2023-03-29T04:25:38;8.80;99.90
19610;DHT22;9952;47.122;-1.638;2023-03-29T04:30:18;8.80;99.90
19610;DHT22;9952;47.122;-1.638;2023-03-29T04:34:59;8.80;99.90
19610;DHT22;9952;47.122;-1.638;2023-03-29T04:39:40;8.70;99.90
19610;DHT22;9952;47.122;-1.638;2023-03-29T04:44:21;8.70;99.90
19610;DHT22;9952;47.122;-1.638;2023-03-29T04:49:02;8.70;99.90
19610;DHT22;9952;47.122;-1.638;2023-03-29T04:53:43;8.70;99.90
19610;DHT22;9952;47.122;-1.638;2023-03-29T04:58:27;8.60;99.90
19610;DHT22;9952;47.122;-1.638;2023-03-29T05:03:08;8.60;99.90
19610;DHT22;9952;47.122;-1.638;2023-03-29T05:07:52;8.50;99.90
19610;DHT22;9952;47.122;-1.638;2023-03-29T05:12:34;8.50;99.90
19610;DHT22;9952;47.122;-1.638;2023-03-29T05:17:16;8.50;99.90
19610;DHT22;9952;47.122;-1.638;2023-03-29T05:21:57;8.40;99.90
19610;DHT22;9952;47.122;-1.638;2023-03-29T05:26:38;8.40;99.90
19610;DHT22;9952;47.122;-1.638;2023-03-29T05:31:19;8.40;99.90
19610;DHT22;9952;47.122;-1.638;2023-03-29T05:36:05;8.50;99.90
19610;DHT22;9952;47.122;-1.638;2023-03-29T05:40:47;8.50;99.90
19610;DHT22;9952;47.122;-1.638;2023-03-29T05:45:29;8.50;99.90
19610;DHT22;9952;47.122;-1.638;2023-03-29T05:50:11;8.50;99.90
19610;DHT22;9952;47.122;-1.638;2023-03-29T05:54:52;8.60;99.90
19610;DHT22;9952;47.122;-1.638;2023-03-29T05:59:33;8.60;99.90
19610;DHT22;9952;47.122;-1.638;2023-03-29T06:04:14;8.60;99.90
19610;DHT22;9952;47.122;-1.638;2023-03-29T06:08:55;8.60;99.90
19610;DHT22;9952;47.122;-1.638;2023-03-29T06:13:36;8.60;99.90
19610;DHT22;9952;47.122;-1.638;2023-03-29T06:18:18;8.60;99.90
19610;DHT22;9952;47.122;-1.638;2023-03-29T06:22:59;8.60;99.90
19610;DHT22;9952;47.122;-1.638;2023-03-29T06:27:40;8.60;99.90
19610;DHT22;9952;47.122;-1.638;2023-03-29T06:32:21;8.60;99.90
19610;DHT22;9952;47.122;-1.638;2023-03-29T06:37:02;8.70;99.90
19610;DHT22;9952;47.122;-1.638;2023-03-29T06:47:23;9.00;99.90
19610;DHT22;9952;47.122;-1.638;2023-03-29T06:52:10;9.10;99.90
19610;DHT22;9952;47.122;-1.638;2023-03-29T06:56:51;9.30;99.90
19610;DHT22;9952;47.122;-1.638;2023-03-29T07:01:32;9.50;99.90
19610;DHT22;9952;47.122;-1.638;2023-03-29T07:06:14;9.70;99.90
19610;DHT22;9952;47.122;-1.638;2023-03-29T07:10:57;10.00;99.90
19610;DHT22;9952;47.122;-1.638;2023-03-29T07:15:39;10.20;99.90
19610;DHT22;9952;47.122;-1.638;2023-03-29T07:20:21;10.40;99.90
19610;DHT22;9952;47.122;-1.638;2023-03-29T07:25:02;10.60;99.90
19610;DHT22;9952;47.122;-1.638;2023-03-29T07:29:43;10.70;99.90
19610;DHT22;9952;47.122;-1.638;2023-03-29T07:34:24;10.90;99.90
19610;DHT22;9952;47.122;-1.638;2023-03-29T07:39:06;11.10;99.90
19610;DHT22;9952;47.122;-1.638;2023-03-29T07:43:48;11.30;99.90
19610;DHT22;9952;47.122;-1.638;2023-03-29T07:48:31;11.30;99.90
19610;DHT22;9952;47.122;-1.638;2023-03-29T07:53:13;11.60;99.90
19610;DHT22;9952;47.122;-1.638;2023-03-29T07:57:54;11.80;99.90
19610;DHT22;9952;47.122;-1.638;2023-03-29T08:02:35;11.90;99.90
19610;DHT22;9952;47.122;-1.638;2023-03-29T08:07:16;12.20;99.90
19610;DHT22;9952;47.122;-1.638;2023-03-29T08:11:59;12.30;99.90
19610;DHT22;9952;47.122;-1.638;2023-03-29T08:16:40;12.40;99.90
19610;DHT22;9952;47.122;-1.638;2023-03-29T08:21:21;12.60;99.90
19610;DHT22;9952;47.122;-1.638;2023-03-29T08:26:02;12.90;99.90
19610;DHT22;9952;47.122;-1.638;2023-03-29T08:30:42;13.30;99.90
19610;DHT22;9952;47.122;-1.638;2023-03-29T08:35:24;13.70;99.90
19610;DHT22;9952;47.122;-1.638;2023-03-29T08:40:05;14.10;99.90
19610;DHT22;9952;47.122;-1.638;2023-03-29T08:45:00;14.40;99.90
19610;DHT22;9952;47.122;-1.638;2023-03-29T08:49:47;14.60;99.90
19610;DHT22;9952;47.122;-1.638;2023-03-29T08:54:36;14.70;99.90
19610;DHT22;9952;47.122;-1.638;2023-03-29T08:59:31;14.80;99.90
19610;DHT22;9952;47.122;-1.638;2023-03-29T09:04:17;14.80;99.90
19610;DHT22;9952;47.122;-1.638;2023-03-29T09:09:02;14.90;99.90
19610;DHT22;9952;47.122;-1.638;2023-03-29T09:24:06;16.50;99.90
19610;DHT22;9952;47.122;-1.638;2023-03-29T09:33:39;16.50;99.90
19610;DHT22;9952;47.122;-1.638;2023-03-29T09:38:25;16.20;99.90
19610;DHT22;9952;47.122;-1.638;2023-03-29T09:43:14;16.10;99.90
19610;DHT22;9952;47.122;-1.638;2023-03-29T09:48:12;16.10;99.90
19610;DHT22;9952;47.122;-1.638;2023-03-29T09:52:54;16.10;99.90
19610;DHT22;9952;47.122;-1.638;2023-03-29T09:57:36;16.10;99.90
19610;DHT22;9952;47.122;-1.638;2023-03-29T10:02:19;16.20;99.90
19610;DHT22;9952;47.122;-1.638;2023-03-29T10:07:00;16.30;99.90
19610;DHT22;9952;47.122;-1.638;2023-03-29T10:11:47;16.60;99.90
19610;DHT22;9952;47.122;-1.638;2023-03-29T10:16:34;17.00;99.90
19610;DHT22;9952;47.122;-1.638;2023-03-29T10:21:17;17.40;99.90
19610;DHT22;9952;47.122;-1.638;2023-03-29T10:26:04;18.10;99.90
19610;DHT22;9952;47.122;-1.638;2023-03-29T10:30:52;18.80;99.90
19610;DHT22;9952;47.122;-1.638;2023-03-29T10:35:38;19.00;99.90
19610;DHT22;9952;47.122;-1.638;2023-03-29T10:40:29;19.10;99.90
19610;DHT22;9952;47.122;-1.638;2023-03-29T10:45:39;19.10;99.90
19610;DHT22;9952;47.122;-1.638;2023-03-29T10:50:31;19.30;99.90
19610;DHT22;9952;47.122;-1.638;2023-03-29T10:55:15;19.40;99.90
19610;DHT22;9952;47.122;-1.638;2023-03-29T11:00:03;19.60;99.90
19610;DHT22;9952;47.122;-1.638;2023-03-29T11:04:48;19.70;99.90
19610;DHT22;9952;47.122;-1.638;2023-03-29T11:09:46;19.70;99.90
19610;DHT22;9952;47.122;-1.638;2023-03-29T11:14:47;19.80;99.90
19610;DHT22;9952;47.122;-1.638;2023-03-29T11:24:51;19.80;99.90
19610;DHT22;9952;47.122;-1.638;2023-03-29T11:39:48;19.90;99.90
19610;DHT22;9952;47.122;-1.638;2023-03-29T11:44:35;20.30;99.90
19610;DHT22;9952;47.122;-1.638;2023-03-29T11:54:26;20.90;99.90
19610;DHT22;9952;47.122;-1.638;2023-03-29T11:59:17;21.20;99.90
19610;DHT22;9952;47.122;-1.638;2023-03-29T12:04:06;21.30;99.90
19610;DHT22;9952;47.122;-1.638;2023-03-29T12:09:39;21.40;99.90
19610;DHT22;9952;47.122;-1.638;2023-03-29T12:19:30;21.70;99.90
19610;DHT22;9952;47.122;-1.638;2023-03-29T12:24:18;21.60;99.90
19610;DHT22;9952;47.122;-1.638;2023-03-29T12:29:26;21.70;99.90
19610;DHT22;9952;47.122;-1.638;2023-03-29T12:38:51;21.80;99.90
19610;DHT22;9952;47.122;-1.638;2023-03-29T12:43:36;21.90;99.90
19610;DHT22;9952;47.122;-1.638;2023-03-29T12:48:21;22.00;99.90
19610;DHT22;9952;47.122;-1.638;2023-03-29T12:53:23;22.20;99.90
19610;DHT22;9952;47.122;-1.638;2023-03-29T12:58:08;22.30;99.90
19610;DHT22;9952;47.122;-1.638;2023-03-29T13:08:33;22.50;99.90
19610;DHT22;9952;47.122;-1.638;2023-03-29T13:13:22;22.50;99.90
19610;DHT22;9952;47.122;-1.638;2023-03-29T13:23:34;22.10;99.90
19610;DHT22;9952;47.122;-1.638;2023-03-29T13:29:18;21.90;99.90
19610;DHT22;9952;47.122;-1.638;2023-03-29T13:38:46;22.10;99.90
19610;DHT22;9952;47.122;-1.638;2023-03-29T13:43:50;22.30;99.90
19610;DHT22;9952;47.122;-1.638;2023-03-29T13:59:01;21.80;99.90
19610;DHT22;9952;47.122;-1.638;2023-03-29T14:03:47;21.60;99.90
19610;DHT22;9952;47.122;-1.638;2023-03-29T14:08:29;21.30;99.90
19610;DHT22;9952;47.122;-1.638;2023-03-29T14:13:16;21.10;99.90
19610;DHT22;9952;47.122;-1.638;2023-03-29T14:17:57;20.80;99.90
19610;DHT22;9952;47.122;-1.638;2023-03-29T14:22:41;20.80;99.90
19610;DHT22;9952;47.122;-1.638;2023-03-29T14:27:23;20.70;99.90
19610;DHT22;9952;47.122;-1.638;2023-03-29T14:32:15;20.50;99.90
19610;DHT22;9952;47.122;-1.638;2023-03-29T14:36:57;20.40;99.90
19610;DHT22;9952;47.122;-1.638;2023-03-29T14:41:42;20.40;99.90
19610;DHT22;9952;47.122;-1.638;2023-03-29T14:46:26;20.30;99.90
19610;DHT22;9952;47.122;-1.638;2023-03-29T14:51:08;20.20;99.90
19610;DHT22;9952;47.122;-1.638;2023-03-29T14:55:51;20.20;99.90
19610;DHT22;9952;47.122;-1.638;2023-03-29T15:00:40;20.20;99.90
19610;DHT22;9952;47.122;-1.638;2023-03-29T15:05:37;20.00;99.90
19610;DHT22;9952;47.122;-1.638;2023-03-29T15:10:19;19.90;99.90
19610;DHT22;9952;47.122;-1.638;2023-03-29T15:15:01;19.80;99.90
19610;DHT22;9952;47.122;-1.638;2023-03-29T15:19:43;19.70;99.90
19610;DHT22;9952;47.122;-1.638;2023-03-29T15:24:29;19.60;99.90
19610;DHT22;9952;47.122;-1.638;2023-03-29T15:29:15;19.50;99.90
19610;DHT22;9952;47.122;-1.638;2023-03-29T15:34:23;19.20;99.90
19610;DHT22;9952;47.122;-1.638;2023-03-29T15:39:04;19.10;99.90
19610;DHT22;9952;47.122;-1.638;2023-03-29T15:43:45;19.00;99.90
19610;DHT22;9952;47.122;-1.638;2023-03-29T15:48:27;19.00;99.90
19610;DHT22;9952;47.122;-1.638;2023-03-29T15:53:08;18.90;99.90
19610;DHT22;9952;47.122;-1.638;2023-03-29T15:57:52;19.00;99.90
19610;DHT22;9952;47.122;-1.638;2023-03-29T16:02:33;18.80;99.90
19610;DHT22;9952;47.122;-1.638;2023-03-29T16:07:15;18.80;99.90
19610;DHT22;9952;47.122;-1.638;2023-03-29T16:11:57;18.80;99.90
19610;DHT22;9952;47.122;-1.638;2023-03-29T16:16:39;18.80;99.90
19610;DHT22;9952;47.122;-1.638;2023-03-29T16:21:21;18.70;99.90
19610;DHT22;9952;47.122;-1.638;2023-03-29T16:26:03;18.60;99.90
19610;DHT22;9952;47.122;-1.638;2023-03-29T16:30:44;18.60;99.90
19610;DHT22;9952;47.122;-1.638;2023-03-29T16:35:28;18.60;99.90
19610;DHT22;9952;47.122;-1.638;2023-03-29T16:40:09;18.60;99.90
19610;DHT22;9952;47.122;-1.638;2023-03-29T16:44:51;18.70;99.90
19610;DHT22;9952;47.122;-1.638;2023-03-29T16:49:33;18.70;99.90
19610;DHT22;9952;47.122;-1.638;2023-03-29T16:54:15;18.70;99.90
19610;DHT22;9952;47.122;-1.638;2023-03-29T16:58:59;18.60;99.90
19610;DHT22;9952;47.122;-1.638;2023-03-29T17:03:41;18.60;99.90
19610;DHT22;9952;47.122;-1.638;2023-03-29T17:08:22;18.50;99.90
19610;DHT22;9952;47.122;-1.638;2023-03-29T17:13:03;18.40;99.90
19610;DHT22;9952;47.122;-1.638;2023-03-29T17:17:44;18.30;99.90
19610;DHT22;9952;47.122;-1.638;2023-03-29T17:22:25;18.10;99.90
19610;DHT22;9952;47.122;-1.638;2023-03-29T17:27:06;18.00;99.90
19610;DHT22;9952;47.122;-1.638;2023-03-29T17:31:46;17.80;99.90
19610;DHT22;9952;47.122;-1.638;2023-03-29T17:36:27;17.70;99.90
19610;DHT22;9952;47.122;-1.638;2023-03-29T17:41:08;17.60;99.90
19610;DHT22;9952;47.122;-1.638;2023-03-29T17:45:50;17.50;99.90
19610;DHT22;9952;47.122;-1.638;2023-03-29T17:50:31;17.50;99.90
19610;DHT22;9952;47.122;-1.638;2023-03-29T17:55:12;17.40;99.90
19610;DHT22;9952;47.122;-1.638;2023-03-29T17:59:53;17.40;99.90
19610;DHT22;9952;47.122;-1.638;2023-03-29T18:04:34;17.30;99.90
19610;DHT22;9952;47.122;-1.638;2023-03-29T18:09:15;17.30;99.90
19610;DHT22;9952;47.122;-1.638;2023-03-29T18:13:58;17.30;99.90
19610;DHT22;9952;47.122;-1.638;2023-03-29T18:18:40;17.30;99.90
19610;DHT22;9952;47.122;-1.638;2023-03-29T18:23:21;17.40;99.90
19610;DHT22;9952;47.122;-1.638;2023-03-29T18:28:02;17.40;99.90
19610;DHT22;9952;47.122;-1.638;2023-03-29T18:32:43;17.40;99.90
19610;DHT22;9952;47.122;-1.638;2023-03-29T18:37:24;17.40;99.90
19610;DHT22;9952;47.122;-1.638;2023-03-29T18:42:04;17.40;99.90
19610;DHT22;9952;47.122;-1.638;2023-03-29T18:46:45;17.30;99.90
19610;DHT22;9952;47.122;-1.638;2023-03-29T18:51:27;17.30;99.90
19610;DHT22;9952;47.122;-1.638;2023-03-29T18:56:09;17.20;99.90
19610;DHT22;9952;47.122;-1.638;2023-03-29T19:00:50;17.10;99.90
19610;DHT22;9952;47.122;-1.638;2023-03-29T19:05:31;16.80;99.90
19610;DHT22;9952;47.122;-1.638;2023-03-29T19:10:13;16.70;99.90
19610;DHT22;9952;47.122;-1.638;2023-03-29T19:14:54;16.60;99.90
19610;DHT22;9952;47.122;-1.638;2023-03-29T19:19:35;16.50;99.90
19610;DHT22;9952;47.122;-1.638;2023-03-29T19:24:17;16.50;99.90
19610;DHT22;9952;47.122;-1.638;2023-03-29T19:28:59;16.40;99.90
19610;DHT22;9952;47.122;-1.638;2023-03-29T19:33:40;16.20;99.90
19610;DHT22;9952;47.122;-1.638;2023-03-29T19:38:21;16.20;99.90
19610;DHT22;9952;47.122;-1.638;2023-03-29T19:43:02;16.20;99.90
19610;DHT22;9952;47.122;-1.638;2023-03-29T19:47:43;16.10;99.90
19610;DHT22;9952;47.122;-1.638;2023-03-29T19:52:27;16.10;99.90
19610;DHT22;9952;47.122;-1.638;2023-03-29T19:57:08;16.00;99.90
19610;DHT22;9952;47.122;-1.638;2023-03-29T20:01:49;16.00;99.90
19610;DHT22;9952;47.122;-1.638;2023-03-29T20:06:31;15.80;99.90
19610;DHT22;9952;47.122;-1.638;2023-03-29T20:11:13;15.70;99.90
19610;DHT22;9952;47.122;-1.638;2023-03-29T20:15:54;15.60;99.90
19610;DHT22;9952;47.122;-1.638;2023-03-29T20:20:35;15.50;99.90
19610;DHT22;9952;47.122;-1.638;2023-03-29T20:25:16;15.50;99.90
19610;DHT22;9952;47.122;-1.638;2023-03-29T20:29:57;15.50;99.90
19610;DHT22;9952;47.122;-1.638;2023-03-29T20:34:37;15.50;99.90
19610;DHT22;9952;47.122;-1.638;2023-03-29T20:39:18;15.50;99.90
19610;DHT22;9952;47.122;-1.638;2023-03-29T20:44:02;15.50;99.90
19610;DHT22;9952;47.122;-1.638;2023-03-29T20:48:44;15.40;99.90
19610;DHT22;9952;47.122;-1.638;2023-03-29T20:53:34;15.40;99.90
19610;DHT22;9952;47.122;-1.638;2023-03-29T20:58:15;15.30;99.90
19610;DHT22;9952;47.122;-1.638;2023-03-29T21:02:56;15.20;99.90
19610;DHT22;9952;47.122;-1.638;2023-03-29T21:07:40;15.20;99.90
19610;DHT22;9952;47.122;-1.638;2023-03-29T21:12:24;15.20;99.90
19610;DHT22;9952;47.122;-1.638;2023-03-29T21:17:05;15.10;99.90
19610;DHT22;9952;47.122;-1.638;2023-03-29T21:21:52;15.10;99.90
19610;DHT22;9952;47.122;-1.638;2023-03-29T21:26:34;15.00;99.90
19610;DHT22;9952;47.122;-1.638;2023-03-29T21:31:15;15.00;99.90
19610;DHT22;9952;47.122;-1.638;2023-03-29T21:35:56;14.90;99.90
19610;DHT22;9952;47.122;-1.638;2023-03-29T21:40:37;14.90;99.90
19610;DHT22;9952;47.122;-1.638;2023-03-29T21:45:18;14.90;99.90
19610;DHT22;9952;47.122;-1.638;2023-03-29T21:49:59;14.80;99.90
19610;DHT22;9952;47.122;-1.638;2023-03-29T21:54:39;14.70;99.90
19610;DHT22;9952;47.122;-1.638;2023-03-29T21:59:20;14.70;99.90
19610;DHT22;9952;47.122;-1.638;2023-03-29T22:04:01;14.60;99.90
19610;DHT22;9952;47.122;-1.638;2023-03-29T22:08:42;14.50;99.90
19610;DHT22;9952;47.122;-1.638;2023-03-29T22:13:27;14.50;99.90
19610;DHT22;9952;47.122;-1.638;2023-03-29T22:18:07;14.50;99.90
19610;DHT22;9952;47.122;-1.638;2023-03-29T22:22:49;14.40;99.90
19610;DHT22;9952;47.122;-1.638;2023-03-29T22:27:30;14.40;99.90
19610;DHT22;9952;47.122;-1.638;2023-03-29T22:32:11;14.20;99.90
19610;DHT22;9952;47.122;-1.638;2023-03-29T22:36:52;14.20;99.90
19610;DHT22;9952;47.122;-1.638;2023-03-29T22:41:32;14.10;99.90
19610;DHT22;9952;47.122;-1.638;2023-03-29T22:46:13;14.10;99.90
19610;DHT22;9952;47.122;-1.638;2023-03-29T22:50:54;14.10;99.90
19610;DHT22;9952;47.122;-1.638;2023-03-29T22:55:35;14.10;99.90
19610;DHT22;9952;47.122;-1.638;2023-03-29T23:00:16;14.00;99.90
19610;DHT22;9952;47.122;-1.638;2023-03-29T23:04:58;14.00;99.90
19610;DHT22;9952;47.122;-1.638;2023-03-29T23:09:38;13.90;99.90
19610;DHT22;9952;47.122;-1.638;2023-03-29T23:14:19;13.90;99.90
19610;DHT22;9952;47.122;-1.638;2023-03-29T23:19:00;13.80;99.90
19610;DHT22;9952;47.122;-1.638;2023-03-29T23:23:42;13.80;99.90
19610;DHT22;9952;47.122;-1.638;2023-03-29T23:28:24;13.80;99.90
19610;DHT22;9952;47.122;-1.638;2023-03-29T23:33:06;13.80;99.90
19610;DHT22;9952;47.122;-1.638;2023-03-29T23:37:49;13.80;99.90
19610;DHT22;9952;47.122;-1.638;2023-03-29T23:42:30;13.70;99.90
19610;DHT22;9952;47.122;-1.638;2023-03-29T23:47:11;13.70;99.90
19610;DHT22;9952;47.122;-1.638;2023-03-29T23:51:52;13.70;99.90
19610;DHT22;9952;47.122;-1.638;2023-03-29T23:56:33;13.70;99.90
